sensor_id;sensor_type;location;lat;lon;timestamp;P1;durP1;ratioP1;P2;durP2;ratioP2
6505;SDS011;3286;49.858;8.768;2022-12-17T00:00:45;13.97;;;7.10;;
6505;SDS011;3286;49.858;8.768;2022-12-17T00:03:31;11.37;;;5.90;;
6505;SDS011;3286;49.858;8.768;2022-12-17T00:06:17;10.43;;;5.90;;
6505;SDS011;3286;49.858;8.768;2022-12-17T00:09:02;13.57;;;7.17;;
6505;SDS011;3286;49.858;8.768;2022-12-17T00:11:48;12.33;;;6.70;;
6505;SDS011;3286;49.858;8.768;2022-12-17T00:14:46;16.47;;;7.93;;
6505;SDS011;3286;49.858;8.768;2022-12-17T00:17:47;11.37;;;6.73;;
6505;SDS011;3286;49.858;8.768;2022-12-17T00:20:34;15.23;;;7.57;;
6505;SDS011;3286;49.858;8.768;2022-12-17T00:23:19;16.63;;;7.17;;
6505;SDS011;3286;49.858;8.768;2022-12-17T00:26:03;12.00;;;6.43;;
6505;SDS011;3286;49.858;8.768;2022-12-17T00:28:48;12.80;;;6.63;;
6505;SDS011;3286;49.858;8.768;2022-12-17T00:31:34;13.70;;;6.47;;
6505;SDS011;3286;49.858;8.768;2022-12-17T00:34:20;9.13;;;5.57;;
6505;SDS011;3286;49.858;8.768;2022-12-17T00:37:04;16.03;;;6.93;;
6505;SDS011;3286;49.858;8.768;2022-12-17T00:39:50;12.60;;;6.93;;
6505;SDS011;3286;49.858;8.768;2022-12-17T00:42:34;15.23;;;5.77;;
6505;SDS011;3286;49.858;8.768;2022-12-17T00:45:21;12.03;;;5.93;;
6505;SDS011;3286;49.858;8.768;2022-12-17T00:48:07;12.30;;;5.97;;
6505;SDS011;3286;49.858;8.768;2022-12-17T00:50:51;10.50;;;5.80;;
6505;SDS011;3286;49.858;8.768;2022-12-17T00:53:39;13.23;;;6.23;;
6505;SDS011;3286;49.858;8.768;2022-12-17T00:56:24;9.67;;;5.20;;
6505;SDS011;3286;49.858;8.768;2022-12-17T00:59:08;12.47;;;6.07;;
6505;SDS011;3286;49.858;8.768;2022-12-17T01:01:52;8.87;;;5.53;;
6505;SDS011;3286;49.858;8.768;2022-12-17T01:04:38;12.43;;;5.47;;
6505;SDS011;3286;49.858;8.768;2022-12-17T01:07:22;12.90;;;6.13;;
6505;SDS011;3286;49.858;8.768;2022-12-17T01:10:07;13.33;;;6.03;;
6505;SDS011;3286;49.858;8.768;2022-12-17T01:12:52;12.03;;;5.27;;
6505;SDS011;3286;49.858;8.768;2022-12-17T01:15:36;9.37;;;5.67;;
6505;SDS011;3286;49.858;8.768;2022-12-17T01:18:20;11.70;;;5.43;;
6505;SDS011;3286;49.858;8.768;2022-12-17T01:21:04;9.87;;;5.83;;
6505;SDS011;3286;49.858;8.768;2022-12-17T01:23:48;9.80;;;6.00;;
6505;SDS011;3286;49.858;8.768;2022-12-17T01:26:32;11.07;;;5.83;;
6505;SDS011;3286;49.858;8.768;2022-12-17T01:29:19;9.90;;;5.73;;
6505;SDS011;3286;49.858;8.768;2022-12-17T01:32:06;12.10;;;5.57;;
6505;SDS011;3286;49.858;8.768;2022-12-17T01:34:50;10.30;;;5.20;;
6505;SDS011;3286;49.858;8.768;2022-12-17T01:37:34;10.30;;;6.30;;
6505;SDS011;3286;49.858;8.768;2022-12-17T01:40:21;16.77;;;7.60;;
6505;SDS011;3286;49.858;8.768;2022-12-17T01:43:08;13.67;;;7.57;;
6505;SDS011;3286;49.858;8.768;2022-12-17T01:45:55;13.87;;;6.80;;
6505;SDS011;3286;49.858;8.768;2022-12-17T01:48:42;19.23;;;7.37;;
6505;SDS011;3286;49.858;8.768;2022-12-17T01:51:31;14.83;;;7.10;;
6505;SDS011;3286;49.858;8.768;2022-12-17T01:54:22;23.70;;;8.57;;
6505;SDS011;3286;49.858;8.768;2022-12-17T01:57:09;23.53;;;8.37;;
6505;SDS011;3286;49.858;8.768;2022-12-17T01:59:54;23.17;;;9.67;;
6505;SDS011;3286;49.858;8.768;2022-12-17T02:02:46;21.27;;;9.03;;
6505;SDS011;3286;49.858;8.768;2022-12-17T02:05:31;23.07;;;8.73;;
6505;SDS011;3286;49.858;8.768;2022-12-17T02:08:21;21.57;;;8.43;;
6505;SDS011;3286;49.858;8.768;2022-12-17T02:11:13;23.23;;;9.90;;
6505;SDS011;3286;49.858;8.768;2022-12-17T02:14:09;23.17;;;9.60;;
6505;SDS011;3286;49.858;8.768;2022-12-17T02:17:07;29.57;;;10.50;;
6505;SDS011;3286;49.858;8.768;2022-12-17T02:20:00;28.47;;;9.97;;
6505;SDS011;3286;49.858;8.768;2022-12-17T02:22:55;30.57;;;10.70;;
6505;SDS011;3286;49.858;8.768;2022-12-17T02:25:50;31.63;;;11.20;;
6505;SDS011;3286;49.858;8.768;2022-12-17T02:28:42;23.53;;;9.77;;
6505;SDS011;3286;49.858;8.768;2022-12-17T02:31:29;43.77;;;11.60;;
6505;SDS011;3286;49.858;8.768;2022-12-17T02:34:14;36.87;;;10.63;;
6505;SDS011;3286;49.858;8.768;2022-12-17T02:36:58;27.03;;;9.87;;
6505;SDS011;3286;49.858;8.768;2022-12-17T02:39:41;28.30;;;10.30;;
6505;SDS011;3286;49.858;8.768;2022-12-17T02:42:26;32.97;;;10.77;;
6505;SDS011;3286;49.858;8.768;2022-12-17T02:45:13;26.63;;;11.03;;
6505;SDS011;3286;49.858;8.768;2022-12-17T02:47:58;28.77;;;10.43;;
6505;SDS011;3286;49.858;8.768;2022-12-17T02:50:47;24.03;;;10.50;;
6505;SDS011;3286;49.858;8.768;2022-12-17T02:53:31;38.20;;;10.27;;
6505;SDS011;3286;49.858;8.768;2022-12-17T02:56:19;26.03;;;10.97;;
6505;SDS011;3286;49.858;8.768;2022-12-17T02:59:03;30.70;;;10.63;;
6505;SDS011;3286;49.858;8.768;2022-12-17T03:01:49;35.47;;;12.53;;
6505;SDS011;3286;49.858;8.768;2022-12-17T03:04:33;23.93;;;9.63;;
6505;SDS011;3286;49.858;8.768;2022-12-17T03:07:17;28.67;;;10.77;;
6505;SDS011;3286;49.858;8.768;2022-12-17T03:10:01;29.63;;;11.53;;
6505;SDS011;3286;49.858;8.768;2022-12-17T03:12:47;31.70;;;11.17;;
6505;SDS011;3286;49.858;8.768;2022-12-17T03:15:32;40.27;;;10.30;;
6505;SDS011;3286;49.858;8.768;2022-12-17T03:18:18;27.17;;;10.17;;
6505;SDS011;3286;49.858;8.768;2022-12-17T03:21:02;21.60;;;10.07;;
6505;SDS011;3286;49.858;8.768;2022-12-17T03:23:46;28.60;;;9.47;;
6505;SDS011;3286;49.858;8.768;2022-12-17T03:26:32;24.63;;;10.07;;
6505;SDS011;3286;49.858;8.768;2022-12-17T03:29:16;19.07;;;8.80;;
6505;SDS011;3286;49.858;8.768;2022-12-17T03:32:00;17.97;;;8.87;;
6505;SDS011;3286;49.858;8.768;2022-12-17T03:34:42;23.50;;;10.10;;
6505;SDS011;3286;49.858;8.768;2022-12-17T03:37:28;21.23;;;9.73;;
6505;SDS011;3286;49.858;8.768;2022-12-17T03:40:17;25.10;;;9.80;;
6505;SDS011;3286;49.858;8.768;2022-12-17T03:43:06;29.83;;;9.80;;
6505;SDS011;3286;49.858;8.768;2022-12-17T03:45:51;22.03;;;9.57;;
6505;SDS011;3286;49.858;8.768;2022-12-17T03:48:40;18.67;;;8.73;;
6505;SDS011;3286;49.858;8.768;2022-12-17T03:51:25;31.33;;;10.47;;
6505;SDS011;3286;49.858;8.768;2022-12-17T03:54:17;32.37;;;11.43;;
6505;SDS011;3286;49.858;8.768;2022-12-17T03:57:01;24.07;;;8.90;;
6505;SDS011;3286;49.858;8.768;2022-12-17T03:59:45;26.07;;;9.53;;
6505;SDS011;3286;49.858;8.768;2022-12-17T04:02:29;27.00;;;10.00;;
6505;SDS011;3286;49.858;8.768;2022-12-17T04:05:15;28.80;;;9.23;;
6505;SDS011;3286;49.858;8.768;2022-12-17T04:08:01;26.30;;;9.77;;
6505;SDS011;3286;49.858;8.768;2022-12-17T04:10:44;25.67;;;9.97;;
6505;SDS011;3286;49.858;8.768;2022-12-17T04:13:37;26.87;;;10.53;;
6505;SDS011;3286;49.858;8.768;2022-12-17T04:16:23;30.80;;;11.43;;
6505;SDS011;3286;49.858;8.768;2022-12-17T04:19:07;20.77;;;9.37;;
6505;SDS011;3286;49.858;8.768;2022-12-17T04:21:53;29.73;;;9.63;;
6505;SDS011;3286;49.858;8.768;2022-12-17T04:24:38;24.17;;;10.30;;
6505;SDS011;3286;49.858;8.768;2022-12-17T04:27:22;21.83;;;9.33;;
6505;SDS011;3286;49.858;8.768;2022-12-17T04:30:07;25.27;;;8.97;;
6505;SDS011;3286;49.858;8.768;2022-12-17T04:32:53;26.10;;;10.13;;
6505;SDS011;3286;49.858;8.768;2022-12-17T04:35:37;27.40;;;11.00;;
6505;SDS011;3286;49.858;8.768;2022-12-17T04:38:25;27.03;;;11.93;;
6505;SDS011;3286;49.858;8.768;2022-12-17T04:41:12;34.83;;;11.93;;
6505;SDS011;3286;49.858;8.768;2022-12-17T04:43:56;22.57;;;10.67;;
6505;SDS011;3286;49.858;8.768;2022-12-17T04:46:40;18.87;;;9.60;;
6505;SDS011;3286;49.858;8.768;2022-12-17T04:49:24;21.60;;;9.33;;
6505;SDS011;3286;49.858;8.768;2022-12-17T04:52:08;25.53;;;9.80;;
6505;SDS011;3286;49.858;8.768;2022-12-17T04:54:52;23.40;;;9.70;;
6505;SDS011;3286;49.858;8.768;2022-12-17T04:57:37;23.23;;;9.43;;
6505;SDS011;3286;49.858;8.768;2022-12-17T05:00:21;26.27;;;8.90;;
6505;SDS011;3286;49.858;8.768;2022-12-17T05:03:05;23.10;;;9.60;;
6505;SDS011;3286;49.858;8.768;2022-12-17T05:05:49;17.37;;;8.60;;
6505;SDS011;3286;49.858;8.768;2022-12-17T05:08:36;28.30;;;9.53;;
6505;SDS011;3286;49.858;8.768;2022-12-17T05:11:20;27.37;;;11.20;;
6505;SDS011;3286;49.858;8.768;2022-12-17T05:14:10;17.87;;;9.43;;
6505;SDS011;3286;49.858;8.768;2022-12-17T05:16:56;17.50;;;7.60;;
6505;SDS011;3286;49.858;8.768;2022-12-17T05:19:40;17.60;;;9.13;;
6505;SDS011;3286;49.858;8.768;2022-12-17T05:22:24;24.63;;;9.17;;
6505;SDS011;3286;49.858;8.768;2022-12-17T05:25:08;18.30;;;7.97;;
6505;SDS011;3286;49.858;8.768;2022-12-17T05:27:55;19.10;;;9.37;;
6505;SDS011;3286;49.858;8.768;2022-12-17T05:30:42;17.50;;;8.27;;
6505;SDS011;3286;49.858;8.768;2022-12-17T05:33:33;16.67;;;8.60;;
6505;SDS011;3286;49.858;8.768;2022-12-17T05:36:17;17.73;;;7.43;;
6505;SDS011;3286;49.858;8.768;2022-12-17T05:39:03;15.03;;;6.60;;
6505;SDS011;3286;49.858;8.768;2022-12-17T05:41:47;23.07;;;9.70;;
6505;SDS011;3286;49.858;8.768;2022-12-17T05:44:35;15.33;;;7.57;;
6505;SDS011;3286;49.858;8.768;2022-12-17T05:47:23;14.87;;;7.63;;
6505;SDS011;3286;49.858;8.768;2022-12-17T05:50:07;15.53;;;7.77;;
6505;SDS011;3286;49.858;8.768;2022-12-17T05:53:04;13.47;;;6.57;;
6505;SDS011;3286;49.858;8.768;2022-12-17T05:55:49;15.43;;;7.43;;
6505;SDS011;3286;49.858;8.768;2022-12-17T05:58:36;20.77;;;9.27;;
6505;SDS011;3286;49.858;8.768;2022-12-17T06:01:16;19.43;;;7.80;;
6505;SDS011;3286;49.858;8.768;2022-12-17T06:04:02;18.50;;;7.60;;
6505;SDS011;3286;49.858;8.768;2022-12-17T06:06:48;16.67;;;7.67;;
6505;SDS011;3286;49.858;8.768;2022-12-17T06:09:37;15.03;;;7.67;;
6505;SDS011;3286;49.858;8.768;2022-12-17T06:12:21;17.17;;;7.23;;
6505;SDS011;3286;49.858;8.768;2022-12-17T06:15:09;18.33;;;6.80;;
6505;SDS011;3286;49.858;8.768;2022-12-17T06:17:53;16.20;;;7.03;;
6505;SDS011;3286;49.858;8.768;2022-12-17T06:20:39;13.87;;;7.23;;
6505;SDS011;3286;49.858;8.768;2022-12-17T06:23:25;13.00;;;5.80;;
6505;SDS011;3286;49.858;8.768;2022-12-17T06:26:11;14.37;;;7.33;;
6505;SDS011;3286;49.858;8.768;2022-12-17T06:28:56;14.80;;;5.83;;
6505;SDS011;3286;49.858;8.768;2022-12-17T06:31:39;17.57;;;7.10;;
6505;SDS011;3286;49.858;8.768;2022-12-17T06:34:28;9.77;;;6.07;;
6505;SDS011;3286;49.858;8.768;2022-12-17T06:37:13;12.17;;;6.23;;
6505;SDS011;3286;49.858;8.768;2022-12-17T06:40:00;19.23;;;7.80;;
6505;SDS011;3286;49.858;8.768;2022-12-17T06:42:50;11.30;;;6.03;;
6505;SDS011;3286;49.858;8.768;2022-12-17T06:45:35;15.77;;;6.47;;
6505;SDS011;3286;49.858;8.768;2022-12-17T06:48:19;14.23;;;6.80;;
6505;SDS011;3286;49.858;8.768;2022-12-17T06:51:03;11.30;;;5.83;;
6505;SDS011;3286;49.858;8.768;2022-12-17T06:53:52;15.37;;;5.37;;
6505;SDS011;3286;49.858;8.768;2022-12-17T06:56:39;15.60;;;6.70;;
6505;SDS011;3286;49.858;8.768;2022-12-17T06:59:19;20.80;;;7.50;;
6505;SDS011;3286;49.858;8.768;2022-12-17T07:02:00;13.43;;;6.33;;
6505;SDS011;3286;49.858;8.768;2022-12-17T07:04:44;17.70;;;7.73;;
6505;SDS011;3286;49.858;8.768;2022-12-17T07:07:28;14.33;;;6.77;;
6505;SDS011;3286;49.858;8.768;2022-12-17T07:10:13;10.77;;;5.57;;
6505;SDS011;3286;49.858;8.768;2022-12-17T07:13:04;14.47;;;7.37;;
6505;SDS011;3286;49.858;8.768;2022-12-17T07:15:48;12.67;;;7.10;;
6505;SDS011;3286;49.858;8.768;2022-12-17T07:18:34;15.60;;;6.97;;
6505;SDS011;3286;49.858;8.768;2022-12-17T07:21:18;24.53;;;7.57;;
6505;SDS011;3286;49.858;8.768;2022-12-17T07:24:06;15.80;;;5.53;;
6505;SDS011;3286;49.858;8.768;2022-12-17T07:26:52;15.43;;;6.83;;
6505;SDS011;3286;49.858;8.768;2022-12-17T07:29:36;12.47;;;6.67;;
6505;SDS011;3286;49.858;8.768;2022-12-17T07:32:25;14.77;;;6.60;;
6505;SDS011;3286;49.858;8.768;2022-12-17T07:35:09;20.00;;;7.53;;
6505;SDS011;3286;49.858;8.768;2022-12-17T07:37:57;13.10;;;5.63;;
6505;SDS011;3286;49.858;8.768;2022-12-17T07:40:41;11.53;;;6.60;;
6505;SDS011;3286;49.858;8.768;2022-12-17T07:43:27;18.13;;;7.83;;
6505;SDS011;3286;49.858;8.768;2022-12-17T07:46:13;13.13;;;6.83;;
6505;SDS011;3286;49.858;8.768;2022-12-17T07:48:59;17.50;;;6.63;;
6505;SDS011;3286;49.858;8.768;2022-12-17T07:51:57;17.93;;;7.33;;
6505;SDS011;3286;49.858;8.768;2022-12-17T07:54:41;14.57;;;6.03;;
6505;SDS011;3286;49.858;8.768;2022-12-17T07:57:25;11.63;;;5.77;;
6505;SDS011;3286;49.858;8.768;2022-12-17T08:00:14;11.00;;;6.03;;
6505;SDS011;3286;49.858;8.768;2022-12-17T08:03:00;13.10;;;5.60;;
6505;SDS011;3286;49.858;8.768;2022-12-17T08:05:44;13.90;;;6.60;;
6505;SDS011;3286;49.858;8.768;2022-12-17T08:08:31;15.33;;;6.23;;
6505;SDS011;3286;49.858;8.768;2022-12-17T08:11:17;11.93;;;6.20;;
6505;SDS011;3286;49.858;8.768;2022-12-17T08:14:01;16.40;;;6.63;;
6505;SDS011;3286;49.858;8.768;2022-12-17T08:16:46;14.43;;;6.73;;
6505;SDS011;3286;49.858;8.768;2022-12-17T08:19:32;19.43;;;7.73;;
6505;SDS011;3286;49.858;8.768;2022-12-17T08:22:17;24.37;;;8.43;;
6505;SDS011;3286;49.858;8.768;2022-12-17T08:25:01;17.63;;;8.27;;
6505;SDS011;3286;49.858;8.768;2022-12-17T08:27:41;18.97;;;7.70;;
6505;SDS011;3286;49.858;8.768;2022-12-17T08:30:28;14.93;;;8.40;;
6505;SDS011;3286;49.858;8.768;2022-12-17T08:33:13;15.20;;;7.53;;
6505;SDS011;3286;49.858;8.768;2022-12-17T08:35:59;16.43;;;6.80;;
6505;SDS011;3286;49.858;8.768;2022-12-17T08:38:43;22.50;;;8.30;;
6505;SDS011;3286;49.858;8.768;2022-12-17T08:41:31;17.77;;;7.80;;
6505;SDS011;3286;49.858;8.768;2022-12-17T08:44:15;16.37;;;7.40;;
6505;SDS011;3286;49.858;8.768;2022-12-17T08:46:58;15.37;;;7.03;;
6505;SDS011;3286;49.858;8.768;2022-12-17T08:49:45;16.57;;;7.73;;
6505;SDS011;3286;49.858;8.768;2022-12-17T08:52:29;14.20;;;7.20;;
6505;SDS011;3286;49.858;8.768;2022-12-17T08:55:13;14.83;;;8.07;;
6505;SDS011;3286;49.858;8.768;2022-12-17T08:57:58;19.37;;;8.47;;
6505;SDS011;3286;49.858;8.768;2022-12-17T09:00:42;17.87;;;8.37;;
6505;SDS011;3286;49.858;8.768;2022-12-17T09:03:27;17.43;;;7.33;;
6505;SDS011;3286;49.858;8.768;2022-12-17T09:06:13;17.57;;;7.70;;
6505;SDS011;3286;49.858;8.768;2022-12-17T09:08:57;14.50;;;7.67;;
6505;SDS011;3286;49.858;8.768;2022-12-17T09:11:41;24.77;;;9.13;;
6505;SDS011;3286;49.858;8.768;2022-12-17T09:14:31;15.63;;;8.10;;
6505;SDS011;3286;49.858;8.768;2022-12-17T09:17:18;15.40;;;7.83;;
6505;SDS011;3286;49.858;8.768;2022-12-17T09:20:02;17.87;;;7.70;;
6505;SDS011;3286;49.858;8.768;2022-12-17T09:22:51;15.73;;;8.33;;
6505;SDS011;3286;49.858;8.768;2022-12-17T09:25:36;14.43;;;7.73;;
6505;SDS011;3286;49.858;8.768;2022-12-17T09:28:19;18.03;;;8.70;;
6505;SDS011;3286;49.858;8.768;2022-12-17T09:31:06;13.87;;;6.97;;
6505;SDS011;3286;49.858;8.768;2022-12-17T09:33:50;15.27;;;7.20;;
6505;SDS011;3286;49.858;8.768;2022-12-17T09:36:34;15.40;;;6.50;;
6505;SDS011;3286;49.858;8.768;2022-12-17T09:39:20;14.50;;;7.47;;
6505;SDS011;3286;49.858;8.768;2022-12-17T09:42:07;19.30;;;7.90;;
6505;SDS011;3286;49.858;8.768;2022-12-17T09:45:17;16.57;;;7.87;;
6505;SDS011;3286;49.858;8.768;2022-12-17T09:48:05;18.77;;;7.67;;
6505;SDS011;3286;49.858;8.768;2022-12-17T09:50:57;14.47;;;7.97;;
6505;SDS011;3286;49.858;8.768;2022-12-17T09:53:43;21.67;;;8.80;;
6505;SDS011;3286;49.858;8.768;2022-12-17T09:56:30;19.00;;;9.50;;
6505;SDS011;3286;49.858;8.768;2022-12-17T09:59:19;19.93;;;9.67;;
6505;SDS011;3286;49.858;8.768;2022-12-17T10:02:11;17.80;;;7.93;;
6505;SDS011;3286;49.858;8.768;2022-12-17T10:05:04;25.53;;;11.07;;
6505;SDS011;3286;49.858;8.768;2022-12-17T10:07:54;20.77;;;9.43;;
6505;SDS011;3286;49.858;8.768;2022-12-17T10:10:40;26.23;;;11.83;;
6505;SDS011;3286;49.858;8.768;2022-12-17T10:13:31;24.77;;;10.93;;
6505;SDS011;3286;49.858;8.768;2022-12-17T10:16:24;23.00;;;10.90;;
6505;SDS011;3286;49.858;8.768;2022-12-17T10:19:10;30.67;;;11.63;;
6505;SDS011;3286;49.858;8.768;2022-12-17T10:22:06;28.40;;;11.43;;
6505;SDS011;3286;49.858;8.768;2022-12-17T10:24:51;26.97;;;12.33;;
6505;SDS011;3286;49.858;8.768;2022-12-17T10:27:39;25.93;;;11.97;;
6505;SDS011;3286;49.858;8.768;2022-12-17T10:30:26;23.40;;;11.17;;
6505;SDS011;3286;49.858;8.768;2022-12-17T10:33:12;24.77;;;11.10;;
6505;SDS011;3286;49.858;8.768;2022-12-17T10:36:01;26.13;;;11.17;;
6505;SDS011;3286;49.858;8.768;2022-12-17T10:38:52;41.13;;;12.70;;
6505;SDS011;3286;49.858;8.768;2022-12-17T10:41:39;23.73;;;11.40;;
6505;SDS011;3286;49.858;8.768;2022-12-17T10:44:25;28.60;;;11.33;;
6505;SDS011;3286;49.858;8.768;2022-12-17T10:47:12;27.20;;;11.63;;
6505;SDS011;3286;49.858;8.768;2022-12-17T10:49:58;24.80;;;11.30;;
6505;SDS011;3286;49.858;8.768;2022-12-17T10:52:54;21.23;;;10.63;;
6505;SDS011;3286;49.858;8.768;2022-12-17T10:55:45;29.07;;;10.50;;
6505;SDS011;3286;49.858;8.768;2022-12-17T10:58:33;26.80;;;11.13;;
6505;SDS011;3286;49.858;8.768;2022-12-17T11:01:25;30.37;;;13.27;;
6505;SDS011;3286;49.858;8.768;2022-12-17T11:04:20;26.17;;;11.43;;
6505;SDS011;3286;49.858;8.768;2022-12-17T11:07:09;21.17;;;10.50;;
6505;SDS011;3286;49.858;8.768;2022-12-17T11:09:59;26.57;;;12.40;;
6505;SDS011;3286;49.858;8.768;2022-12-17T11:12:47;26.57;;;11.53;;
6505;SDS011;3286;49.858;8.768;2022-12-17T11:15:35;26.83;;;12.50;;
6505;SDS011;3286;49.858;8.768;2022-12-17T11:18:25;24.40;;;11.70;;
6505;SDS011;3286;49.858;8.768;2022-12-17T11:21:19;28.83;;;14.00;;
6505;SDS011;3286;49.858;8.768;2022-12-17T11:24:07;30.63;;;12.93;;
6505;SDS011;3286;49.858;8.768;2022-12-17T11:26:56;29.00;;;13.47;;
6505;SDS011;3286;49.858;8.768;2022-12-17T11:29:46;24.63;;;12.20;;
6505;SDS011;3286;49.858;8.768;2022-12-17T11:35:48;25.93;;;12.47;;
6505;SDS011;3286;49.858;8.768;2022-12-17T11:38:40;21.23;;;11.43;;
6505;SDS011;3286;49.858;8.768;2022-12-17T11:41:35;25.77;;;13.03;;
6505;SDS011;3286;49.858;8.768;2022-12-17T11:44:40;27.37;;;11.83;;
6505;SDS011;3286;49.858;8.768;2022-12-17T11:47:39;28.53;;;12.63;;
6505;SDS011;3286;49.858;8.768;2022-12-17T11:50:31;28.27;;;13.33;;
6505;SDS011;3286;49.858;8.768;2022-12-17T11:53:26;32.47;;;12.40;;
6505;SDS011;3286;49.858;8.768;2022-12-17T11:56:23;28.17;;;12.40;;
6505;SDS011;3286;49.858;8.768;2022-12-17T11:59:13;29.37;;;12.27;;
6505;SDS011;3286;49.858;8.768;2022-12-17T12:02:14;26.37;;;13.47;;
6505;SDS011;3286;49.858;8.768;2022-12-17T12:05:12;27.60;;;13.37;;
6505;SDS011;3286;49.858;8.768;2022-12-17T12:08:12;24.83;;;13.73;;
6505;SDS011;3286;49.858;8.768;2022-12-17T12:11:06;33.87;;;13.93;;
6505;SDS011;3286;49.858;8.768;2022-12-17T12:14:02;30.57;;;13.17;;
6505;SDS011;3286;49.858;8.768;2022-12-17T12:16:55;31.30;;;13.80;;
6505;SDS011;3286;49.858;8.768;2022-12-17T12:19:50;29.07;;;13.53;;
6505;SDS011;3286;49.858;8.768;2022-12-17T12:22:45;32.67;;;13.83;;
6505;SDS011;3286;49.858;8.768;2022-12-17T12:25:36;33.30;;;14.27;;
6505;SDS011;3286;49.858;8.768;2022-12-17T12:28:29;28.67;;;14.17;;
6505;SDS011;3286;49.858;8.768;2022-12-17T12:31:24;30.60;;;15.03;;
6505;SDS011;3286;49.858;8.768;2022-12-17T12:34:26;39.63;;;15.43;;
6505;SDS011;3286;49.858;8.768;2022-12-17T12:37:16;34.90;;;14.60;;
6505;SDS011;3286;49.858;8.768;2022-12-17T12:40:03;32.63;;;15.57;;
6505;SDS011;3286;49.858;8.768;2022-12-17T12:42:53;29.80;;;13.97;;
6505;SDS011;3286;49.858;8.768;2022-12-17T12:45:43;32.03;;;15.20;;
6505;SDS011;3286;49.858;8.768;2022-12-17T12:48:40;36.13;;;15.23;;
6505;SDS011;3286;49.858;8.768;2022-12-17T12:51:29;28.70;;;14.33;;
6505;SDS011;3286;49.858;8.768;2022-12-17T12:54:19;29.43;;;15.00;;
6505;SDS011;3286;49.858;8.768;2022-12-17T12:57:28;33.60;;;14.80;;
6505;SDS011;3286;49.858;8.768;2022-12-17T13:00:22;37.97;;;15.60;;
6505;SDS011;3286;49.858;8.768;2022-12-17T13:03:12;35.57;;;15.47;;
6505;SDS011;3286;49.858;8.768;2022-12-17T13:06:05;30.30;;;15.90;;
6505;SDS011;3286;49.858;8.768;2022-12-17T13:08:33;32.53;;;14.93;;
6505;SDS011;3286;49.858;8.768;2022-12-17T13:11:08;30.40;;;15.37;;
6505;SDS011;3286;49.858;8.768;2022-12-17T13:13:41;30.70;;;14.27;;
6505;SDS011;3286;49.858;8.768;2022-12-17T13:16:24;31.70;;;14.87;;
6505;SDS011;3286;49.858;8.768;2022-12-17T13:19:03;26.83;;;13.60;;
6505;SDS011;3286;49.858;8.768;2022-12-17T13:21:52;33.53;;;15.13;;
6505;SDS011;3286;49.858;8.768;2022-12-17T13:24:22;27.73;;;12.80;;
6505;SDS011;3286;49.858;8.768;2022-12-17T13:26:55;31.80;;;14.50;;
6505;SDS011;3286;49.858;8.768;2022-12-17T13:29:23;32.37;;;14.37;;
6505;SDS011;3286;49.858;8.768;2022-12-17T13:31:59;38.40;;;15.47;;
6505;SDS011;3286;49.858;8.768;2022-12-17T13:37:34;32.27;;;13.23;;
6505;SDS011;3286;49.858;8.768;2022-12-17T13:40:13;29.97;;;13.70;;
6505;SDS011;3286;49.858;8.768;2022-12-17T13:42:54;28.57;;;13.03;;
6505;SDS011;3286;49.858;8.768;2022-12-17T13:45:26;28.20;;;13.47;;
6505;SDS011;3286;49.858;8.768;2022-12-17T13:47:56;28.67;;;13.80;;
6505;SDS011;3286;49.858;8.768;2022-12-17T13:50:29;32.07;;;14.40;;
6505;SDS011;3286;49.858;8.768;2022-12-17T13:53:08;28.10;;;13.53;;
6505;SDS011;3286;49.858;8.768;2022-12-17T13:55:36;27.17;;;13.33;;
6505;SDS011;3286;49.858;8.768;2022-12-17T13:58:17;28.00;;;13.63;;
6505;SDS011;3286;49.858;8.768;2022-12-17T14:00:49;30.13;;;14.93;;
6505;SDS011;3286;49.858;8.768;2022-12-17T14:03:20;30.93;;;15.00;;
6505;SDS011;3286;49.858;8.768;2022-12-17T14:05:51;30.07;;;14.27;;
6505;SDS011;3286;49.858;8.768;2022-12-17T14:08:22;29.40;;;13.93;;
6505;SDS011;3286;49.858;8.768;2022-12-17T14:10:55;28.93;;;12.67;;
6505;SDS011;3286;49.858;8.768;2022-12-17T14:13:43;25.07;;;12.40;;
6505;SDS011;3286;49.858;8.768;2022-12-17T14:16:13;22.60;;;10.97;;
6505;SDS011;3286;49.858;8.768;2022-12-17T14:18:43;24.10;;;12.73;;
6505;SDS011;3286;49.858;8.768;2022-12-17T14:21:12;28.83;;;11.77;;
6505;SDS011;3286;49.858;8.768;2022-12-17T14:23:47;25.60;;;11.97;;
6505;SDS011;3286;49.858;8.768;2022-12-17T14:26:16;23.10;;;11.83;;
6505;SDS011;3286;49.858;8.768;2022-12-17T14:28:44;28.30;;;11.93;;
6505;SDS011;3286;49.858;8.768;2022-12-17T14:31:16;27.87;;;13.13;;
6505;SDS011;3286;49.858;8.768;2022-12-17T14:33:58;26.37;;;11.90;;
6505;SDS011;3286;49.858;8.768;2022-12-17T14:36:31;28.40;;;12.30;;
6505;SDS011;3286;49.858;8.768;2022-12-17T14:39:03;25.73;;;11.70;;
6505;SDS011;3286;49.858;8.768;2022-12-17T14:41:41;23.60;;;11.93;;
6505;SDS011;3286;49.858;8.768;2022-12-17T14:44:31;25.93;;;12.07;;
6505;SDS011;3286;49.858;8.768;2022-12-17T14:47:06;20.87;;;11.33;;
6505;SDS011;3286;49.858;8.768;2022-12-17T14:49:46;23.70;;;11.37;;
6505;SDS011;3286;49.858;8.768;2022-12-17T14:52:19;24.70;;;11.43;;
6505;SDS011;3286;49.858;8.768;2022-12-17T14:54:55;26.90;;;12.67;;
6505;SDS011;3286;49.858;8.768;2022-12-17T14:57:22;23.87;;;12.07;;
6505;SDS011;3286;49.858;8.768;2022-12-17T14:59:48;29.33;;;12.20;;
6505;SDS011;3286;49.858;8.768;2022-12-17T15:02:20;21.13;;;10.80;;
6505;SDS011;3286;49.858;8.768;2022-12-17T15:04:55;21.50;;;10.93;;
6505;SDS011;3286;49.858;8.768;2022-12-17T15:07:26;26.53;;;12.17;;
6505;SDS011;3286;49.858;8.768;2022-12-17T15:09:55;26.57;;;11.60;;
6505;SDS011;3286;49.858;8.768;2022-12-17T15:12:28;25.83;;;13.23;;
6505;SDS011;3286;49.858;8.768;2022-12-17T15:14:57;26.13;;;11.67;;
6505;SDS011;3286;49.858;8.768;2022-12-17T15:17:24;24.13;;;12.53;;
6505;SDS011;3286;49.858;8.768;2022-12-17T15:19:51;28.47;;;12.17;;
6505;SDS011;3286;49.858;8.768;2022-12-17T15:22:17;22.13;;;11.20;;
6505;SDS011;3286;49.858;8.768;2022-12-17T15:24:46;24.30;;;11.33;;
6505;SDS011;3286;49.858;8.768;2022-12-17T15:27:17;29.67;;;13.07;;
6505;SDS011;3286;49.858;8.768;2022-12-17T15:29:44;28.10;;;12.97;;
6505;SDS011;3286;49.858;8.768;2022-12-17T15:32:12;29.53;;;12.83;;
6505;SDS011;3286;49.858;8.768;2022-12-17T15:34:47;25.03;;;12.50;;
6505;SDS011;3286;49.858;8.768;2022-12-17T15:37:16;26.47;;;12.67;;
6505;SDS011;3286;49.858;8.768;2022-12-17T15:39:44;27.00;;;12.97;;
6505;SDS011;3286;49.858;8.768;2022-12-17T15:42:10;29.27;;;13.77;;
6505;SDS011;3286;49.858;8.768;2022-12-17T15:44:56;26.50;;;12.87;;
6505;SDS011;3286;49.858;8.768;2022-12-17T15:47:25;25.83;;;13.33;;
6505;SDS011;3286;49.858;8.768;2022-12-17T15:49:51;34.57;;;13.63;;
6505;SDS011;3286;49.858;8.768;2022-12-17T15:52:20;42.47;;;14.17;;
6505;SDS011;3286;49.858;8.768;2022-12-17T15:54:48;32.90;;;14.07;;
6505;SDS011;3286;49.858;8.768;2022-12-17T15:57:14;40.33;;;14.97;;
6505;SDS011;3286;49.858;8.768;2022-12-17T15:59:42;36.47;;;13.80;;
6505;SDS011;3286;49.858;8.768;2022-12-17T16:02:10;46.80;;;13.87;;
6505;SDS011;3286;49.858;8.768;2022-12-17T16:04:38;35.17;;;14.93;;
6505;SDS011;3286;49.858;8.768;2022-12-17T16:07:05;38.63;;;14.10;;
6505;SDS011;3286;49.858;8.768;2022-12-17T16:09:35;42.07;;;13.33;;
6505;SDS011;3286;49.858;8.768;2022-12-17T16:12:04;60.63;;;14.40;;
6505;SDS011;3286;49.858;8.768;2022-12-17T16:14:36;48.80;;;14.07;;
6505;SDS011;3286;49.858;8.768;2022-12-17T16:17:04;38.20;;;14.13;;
6505;SDS011;3286;49.858;8.768;2022-12-17T16:19:32;47.50;;;15.53;;
6505;SDS011;3286;49.858;8.768;2022-12-17T16:21:59;46.43;;;15.73;;
6505;SDS011;3286;49.858;8.768;2022-12-17T16:24:31;44.03;;;15.13;;
6505;SDS011;3286;49.858;8.768;2022-12-17T16:26:59;42.13;;;15.20;;
6505;SDS011;3286;49.858;8.768;2022-12-17T16:29:26;80.23;;;17.83;;
6505;SDS011;3286;49.858;8.768;2022-12-17T16:31:54;36.50;;;15.27;;
6505;SDS011;3286;49.858;8.768;2022-12-17T16:34:26;41.37;;;14.83;;
6505;SDS011;3286;49.858;8.768;2022-12-17T16:36:57;32.53;;;13.93;;
6505;SDS011;3286;49.858;8.768;2022-12-17T16:39:31;36.93;;;14.57;;
6505;SDS011;3286;49.858;8.768;2022-12-17T16:41:58;42.27;;;15.37;;